createdAt,value
2022-09-30T00:01:25.971Z,5.03
2022-09-30T00:04:20.287Z,5.16
2022-09-30T00:06:49.601Z,4.61
2022-09-30T00:09:17.954Z,4.82
2022-09-30T00:11:46.900Z,4.74
2022-09-30T00:14:17.568Z,4.97
2022-09-30T00:16:45.968Z,4.93
2022-09-30T00:19:14.531Z,4.77
2022-09-30T00:21:42.289Z,4.90
2022-09-30T00:24:09.894Z,4.68
2022-09-30T00:26:37.544Z,5.13
2022-09-30T00:29:05.234Z,5.15
2022-09-30T00:31:34.293Z,4.97
2022-09-30T00:34:09.152Z,5.14
2022-09-30T00:36:43.626Z,4.67
2022-09-30T00:39:16.380Z,5.08
2022-09-30T00:41:44.852Z,5.36
2022-09-30T00:44:31.164Z,5.21
2022-09-30T00:46:59.462Z,5.47
2022-09-30T00:49:27.112Z,5.11
2022-09-30T00:51:57.767Z,5.33
2022-09-30T00:54:30.597Z,5.24
2022-09-30T00:57:03.127Z,5.29
2022-09-30T00:59:35.078Z,5.46
2022-09-30T01:02:02.996Z,5.32
2022-09-30T01:04:32.706Z,5.62
2022-09-30T01:07:03.144Z,5.28
2022-09-30T01:09:32.721Z,5.80
2022-09-30T01:12:04.131Z,5.45
2022-09-30T01:14:31.963Z,5.68
2022-09-30T01:17:11.392Z,6.02
2022-09-30T01:19:41.976Z,5.98
2022-09-30T01:22:15.718Z,5.80
2022-09-30T01:24:49.483Z,6.20
2022-09-30T01:27:20.470Z,5.73
2022-09-30T01:29:47.986Z,6.13
2022-09-30T01:32:22.084Z,5.92
2022-09-30T01:35:01.692Z,6.20
2022-09-30T01:37:41.417Z,6.41
2022-09-30T01:40:12.054Z,6.31
2022-09-30T01:42:48.711Z,6.74
2022-09-30T01:45:20.256Z,6.54
2022-09-30T01:47:47.862Z,6.59
2022-09-30T01:50:31.744Z,6.85
2022-09-30T01:53:38.399Z,7.02
2022-09-30T01:56:12.480Z,6.98
2022-09-30T01:58:45.621Z,7.32
2022-09-30T02:01:27.247Z,6.95
2022-09-30T02:03:58.312Z,7.33
2022-09-30T02:06:33.205Z,7.60
2022-09-30T02:09:09.258Z,7.55
2022-09-30T02:11:38.967Z,7.71
2022-09-30T02:14:12.963Z,7.79
2022-09-30T02:16:45.602Z,7.89
2022-09-30T02:19:24.337Z,7.81
2022-09-30T02:21:57.772Z,8.05
2022-09-30T02:24:29.522Z,7.70
2022-09-30T02:27:00.590Z,8.13
2022-09-30T02:29:32.204Z,7.97
2022-09-30T02:32:05.121Z,8.43
2022-09-30T02:34:37.032Z,8.66
2022-09-30T02:37:13.519Z,8.84
2022-09-30T02:39:52.704Z,8.68
2022-09-30T02:42:26.823Z,8.87
2022-09-30T02:44:57.997Z,9.08
2022-09-30T02:47:30.120Z,8.63
2022-09-30T02:50:00.991Z,8.64
2022-09-30T02:52:31.638Z,8.53
2022-09-30T02:54:59.197Z,8.90
2022-09-30T02:57:44.955Z,8.56
2022-09-30T03:00:13.903Z,8.81
2022-09-30T03:02:42.401Z,8.63
2022-09-30T03:05:10.825Z,8.80
2022-09-30T03:07:40.525Z,9.02
2022-09-30T03:10:15.123Z,9.17
2022-09-30T03:13:02.874Z,9.32
2022-09-30T03:15:39.872Z,9.00
2022-09-30T03:18:27.734Z,9.05
2022-09-30T03:21:21.559Z,9.33
2022-09-30T03:23:52.691Z,9.43
2022-09-30T03:26:36.029Z,9.17
2022-09-30T03:29:15.757Z,9.41
2022-09-30T03:32:01.748Z,9.50
2022-09-30T03:34:40.980Z,10.06
2022-09-30T03:37:28.406Z,9.99
2022-09-30T03:39:58.755Z,10.11
2022-09-30T03:42:33.372Z,10.37
2022-09-30T03:45:04.045Z,11.02
2022-09-30T03:47:35.084Z,11.01
2022-09-30T03:50:06.495Z,11.55
2022-09-30T03:52:35.466Z,12.08
2022-09-30T03:55:05.169Z,11.84
2022-09-30T03:57:32.817Z,12.31
2022-09-30T04:00:00.549Z,11.66
2022-09-30T04:02:28.198Z,11.40
2022-09-30T04:04:56.515Z,11.41
2022-09-30T04:07:24.037Z,11.74
2022-09-30T04:09:51.829Z,11.59
2022-09-30T04:12:19.473Z,11.64
2022-09-30T04:14:47.138Z,11.15
2022-09-30T04:17:15.473Z,11.01
2022-09-30T04:19:43.057Z,10.84
2022-09-30T04:22:10.999Z,11.57
2022-09-30T04:24:39.564Z,10.77
2022-09-30T04:27:07.174Z,10.65
2022-09-30T04:29:34.856Z,10.30
2022-09-30T04:32:02.349Z,9.57
2022-09-30T04:34:29.892Z,9.65
2022-09-30T04:36:57.576Z,9.54
2022-09-30T04:39:25.476Z,9.99
2022-09-30T04:41:54.112Z,9.82
2022-09-30T04:44:21.643Z,9.60
2022-09-30T04:46:49.425Z,9.84
2022-09-30T04:49:17.032Z,9.95
2022-09-30T04:51:46.209Z,9.97
2022-09-30T04:54:14.258Z,10.26
2022-09-30T04:56:42.386Z,10.42
2022-09-30T04:59:09.936Z,9.94
2022-09-30T05:01:37.638Z,9.91
2022-09-30T05:04:05.266Z,9.92
2022-09-30T05:06:32.943Z,10.29
2022-09-30T05:09:00.489Z,9.88
2022-09-30T05:11:29.531Z,8.90
2022-09-30T05:13:57.085Z,8.70
2022-09-30T05:16:24.778Z,8.45
2022-09-30T05:18:52.556Z,8.25
2022-09-30T05:21:20.837Z,8.46
2022-09-30T05:23:48.519Z,7.98
2022-09-30T05:26:16.168Z,8.05
2022-09-30T05:28:43.776Z,7.90
2022-09-30T05:31:13.551Z,7.86
2022-09-30T05:33:42.013Z,8.22
2022-09-30T05:36:13.055Z,8.30
2022-09-30T05:38:40.970Z,7.94
2022-09-30T05:41:13.589Z,9.60
2022-09-30T05:43:45.261Z,8.51
2022-09-30T05:46:12.881Z,7.01
2022-09-30T05:48:41.081Z,6.77
2022-09-30T05:51:09.524Z,6.60
2022-09-30T05:53:42.385Z,7.06
2022-09-30T05:56:10.518Z,6.67
2022-09-30T05:58:40.654Z,6.26
2022-09-30T06:01:13.523Z,6.63
2022-09-30T06:03:45.257Z,6.26
2022-09-30T06:06:13.735Z,6.22
2022-09-30T06:08:43.743Z,6.12
2022-09-30T06:11:13.284Z,6.13
2022-09-30T06:13:42.434Z,6.88
2022-09-30T06:16:11.786Z,8.41
2022-09-30T06:18:41.327Z,7.15
2022-09-30T06:21:11.379Z,6.96
2022-09-30T06:23:39.753Z,6.75
2022-09-30T06:26:09.155Z,6.88
2022-09-30T06:28:36.816Z,6.85
2022-09-30T06:31:05.194Z,7.11
2022-09-30T06:33:32.985Z,7.53
2022-09-30T06:36:04.590Z,7.54
2022-09-30T06:38:32.633Z,7.93
2022-09-30T06:41:00.951Z,7.83
2022-09-30T06:43:28.785Z,8.05
2022-09-30T06:46:09.031Z,8.13
2022-09-30T06:48:40.561Z,8.35
2022-09-30T06:51:10.952Z,8.40
2022-09-30T06:53:40.121Z,8.22
2022-09-30T06:56:08.230Z,8.55
2022-09-30T06:58:35.744Z,9.32
2022-09-30T07:01:05.502Z,8.98
2022-09-30T07:03:34.705Z,8.89
2022-09-30T07:06:03.614Z,8.86
2022-09-30T07:08:32.861Z,8.82
2022-09-30T07:11:01.417Z,8.74
2022-09-30T07:13:28.973Z,9.03
2022-09-30T07:15:57.360Z,8.79
2022-09-30T07:18:26.675Z,8.88
2022-09-30T07:20:55.040Z,9.34
2022-09-30T07:23:26.679Z,9.39
2022-09-30T07:25:57.212Z,8.78
2022-09-30T07:28:31.321Z,9.62
2022-09-30T07:31:27.609Z,10.68
2022-09-30T07:33:51.233Z,10.53
2022-09-30T07:36:21.496Z,9.99
2022-09-30T07:38:51.511Z,10.64
2022-09-30T07:41:22.247Z,9.88
2022-09-30T07:43:50.837Z,9.61
2022-09-30T07:46:24.578Z,9.83
2022-09-30T07:48:54.821Z,9.84
2022-09-30T07:51:24.375Z,10.09
2022-09-30T07:53:54.122Z,10.16
2022-09-30T07:56:22.677Z,10.27
2022-09-30T07:58:54.222Z,10.55
2022-09-30T08:01:22.762Z,10.73
2022-09-30T08:03:53.184Z,10.04
2022-09-30T08:06:22.005Z,10.54
2022-09-30T08:08:52.127Z,10.13
2022-09-30T08:11:20.263Z,10.43
2022-09-30T08:13:55.997Z,10.79
2022-09-30T08:16:25.543Z,11.78
2022-09-30T08:19:01.001Z,10.94
2022-09-30T08:21:29.447Z,11.72
2022-09-30T08:23:58.273Z,11.86
2022-09-30T08:26:25.860Z,11.34
2022-09-30T08:28:53.422Z,11.20
2022-09-30T08:31:22.952Z,11.69
2022-09-30T08:33:51.093Z,11.75
2022-09-30T08:36:20.676Z,11.18
2022-09-30T08:38:48.774Z,11.41
2022-09-30T08:41:35.113Z,11.26
2022-09-30T08:44:05.823Z,10.58
2022-09-30T08:46:42.516Z,10.49
2022-09-30T08:49:16.089Z,10.87
2022-09-30T08:51:46.857Z,12.17
2022-09-30T08:54:16.932Z,11.02
2022-09-30T08:56:45.369Z,11.12
2022-09-30T08:59:30.765Z,11.44
2022-09-30T09:02:17.527Z,11.08
2022-09-30T09:04:46.563Z,12.27
2022-09-30T09:07:34.316Z,11.78
2022-09-30T09:10:18.068Z,11.82
2022-09-30T09:12:48.657Z,12.96
2022-09-30T09:15:35.171Z,12.73
2022-09-30T09:18:25.826Z,12.49
2022-09-30T09:20:55.950Z,11.72
2022-09-30T09:23:24.041Z,11.27
2022-09-30T09:25:55.607Z,11.38
2022-09-30T09:28:35.542Z,10.66
2022-09-30T09:31:04.525Z,10.48
2022-09-30T09:33:35.844Z,10.76
2022-09-30T09:36:15.054Z,11.01
2022-09-30T09:38:58.132Z,10.14
2022-09-30T09:41:33.367Z,10.49
2022-09-30T09:44:09.712Z,9.98
2022-09-30T09:46:57.520Z,10.22
2022-09-30T09:49:25.098Z,9.65
2022-09-30T09:52:12.586Z,9.70
2022-09-30T09:54:41.783Z,9.89
2022-09-30T09:57:14.998Z,10.15
2022-09-30T10:00:27.585Z,9.67
2022-09-30T10:03:00.546Z,9.64
2022-09-30T10:05:30.188Z,9.64
2022-09-30T10:08:16.225Z,9.84
2022-09-30T10:10:46.471Z,10.22
2022-09-30T10:13:17.988Z,9.80
2022-09-30T10:15:46.469Z,9.32
2022-09-30T10:18:20.526Z,9.89
2022-09-30T10:20:52.833Z,10.60
2022-09-30T10:23:22.714Z,12.08
2022-09-30T10:25:59.480Z,12.55
2022-09-30T10:28:30.117Z,13.49
2022-09-30T10:31:06.465Z,13.13
2022-09-30T10:33:46.141Z,13.94
2022-09-30T10:36:21.667Z,13.32
2022-09-30T10:38:59.942Z,14.04
2022-09-30T10:41:33.257Z,16.18
2022-09-30T10:44:03.713Z,21.11
2022-09-30T10:46:35.403Z,22.68
2022-09-30T10:49:10.731Z,18.78
2022-09-30T10:51:39.175Z,14.82
2022-09-30T10:54:06.856Z,14.36
2022-09-30T10:56:38.080Z,15.00
2022-09-30T10:59:19.763Z,13.44
2022-09-30T11:01:53.791Z,13.53
2022-09-30T11:04:53.755Z,14.02
2022-09-30T11:07:27.424Z,11.83
2022-09-30T11:10:07.157Z,10.89
2022-09-30T11:12:45.150Z,9.68
2022-09-30T11:15:12.642Z,8.14
2022-09-30T11:17:47.653Z,7.78
2022-09-30T11:20:25.335Z,7.97
2022-09-30T11:22:57.355Z,7.85
2022-09-30T11:25:30.073Z,8.26
2022-09-30T11:28:03.550Z,7.87
2022-09-30T11:30:31.340Z,8.47
2022-09-30T11:33:01.691Z,8.59
2022-09-30T11:35:52.353Z,8.16
2022-09-30T11:38:19.847Z,8.16
2022-09-30T11:41:06.066Z,8.90
2022-09-30T11:43:52.357Z,9.32
2022-09-30T11:46:45.341Z,10.35
2022-09-30T11:49:31.641Z,12.09
2022-09-30T11:52:18.029Z,12.46
2022-09-30T11:54:51.737Z,11.76
2022-09-30T11:57:25.085Z,13.22
2022-09-30T11:59:59.956Z,14.56
2022-09-30T12:02:38.077Z,13.90
2022-09-30T12:05:14.129Z,19.17
2022-09-30T12:07:51.737Z,25.74
2022-09-30T12:10:22.141Z,28.53
2022-09-30T12:12:54.445Z,29.80
2022-09-30T12:15:26.951Z,30.69
2022-09-30T12:17:59.809Z,29.28
2022-09-30T12:20:41.829Z,30.29
2022-09-30T12:23:15.873Z,29.57
2022-09-30T12:25:50.793Z,28.04
2022-09-30T12:28:39.895Z,23.46
2022-09-30T12:31:21.241Z,14.43
2022-09-30T12:34:08.248Z,10.34
2022-09-30T12:36:49.802Z,16.42
2022-09-30T12:39:20.419Z,13.19
2022-09-30T12:42:12.728Z,13.11
2022-09-30T12:45:00.645Z,14.50
2022-09-30T12:47:34.302Z,13.47
2022-09-30T12:50:07.501Z,12.50
2022-09-30T12:52:36.868Z,11.90
2022-09-30T12:55:31.143Z,11.69
2022-09-30T12:58:01.420Z,11.33
2022-09-30T13:00:37.792Z,10.10
2022-09-30T13:03:06.405Z,9.55
2022-09-30T13:05:38.165Z,9.04
2022-09-30T13:08:05.679Z,9.22
2022-09-30T13:10:34.746Z,8.76
2022-09-30T13:13:29.789Z,8.69
2022-09-30T13:16:03.320Z,8.82
2022-09-30T13:18:31.145Z,7.99
2022-09-30T13:21:05.215Z,7.72
2022-09-30T13:23:40.351Z,6.89
2022-09-30T13:26:23.276Z,7.34
2022-09-30T13:28:52.805Z,7.99
2022-09-30T13:31:21.878Z,8.51
2022-09-30T13:34:01.633Z,8.49
2022-09-30T13:36:38.819Z,5.14
2022-09-30T13:39:08.307Z,3.37
2022-09-30T13:41:39.493Z,4.02
2022-09-30T13:44:14.826Z,4.10
2022-09-30T13:47:02.654Z,3.56
2022-09-30T13:49:45.812Z,3.35
2022-09-30T13:52:21.526Z,3.44
2022-09-30T13:54:51.948Z,3.78
2022-09-30T13:57:25.937Z,3.65
2022-09-30T14:00:00.861Z,3.41
2022-09-30T14:02:35.138Z,3.83
2022-09-30T14:05:22.755Z,3.64
2022-09-30T14:08:06.206Z,3.26
2022-09-30T14:10:52.401Z,3.54
2022-09-30T14:13:19.961Z,4.66
2022-09-30T14:15:48.215Z,5.81
2022-09-30T14:18:36.003Z,5.81
2022-09-30T14:21:22.504Z,5.94
2022-09-30T14:23:58.803Z,5.71
2022-09-30T14:26:57.504Z,5.13
2022-09-30T14:29:45.873Z,4.97
2022-09-30T14:32:20.202Z,5.73
2022-09-30T14:34:49.136Z,5.82
2022-09-30T14:37:31.861Z,5.56
2022-09-30T14:40:04.175Z,6.33
2022-09-30T14:42:36.798Z,5.73
2022-09-30T14:45:07.173Z,5.75
2022-09-30T14:47:38.468Z,5.87
2022-09-30T14:50:19.762Z,4.85
2022-09-30T14:52:49.402Z,4.16
2022-09-30T14:55:27.971Z,3.91
2022-09-30T14:58:17.489Z,3.60
2022-09-30T15:00:49.743Z,3.58
2022-09-30T15:03:18.532Z,3.52
2022-09-30T15:05:46.789Z,3.66
2022-09-30T15:08:19.428Z,4.09
2022-09-30T15:10:49.072Z,5.77
2022-09-30T15:13:19.100Z,4.30
2022-09-30T15:15:47.865Z,4.70
2022-09-30T15:18:32.408Z,4.35
2022-09-30T15:21:05.845Z,4.49
2022-09-30T15:23:37.630Z,4.17
2022-09-30T15:26:07.089Z,3.83
2022-09-30T15:28:36.753Z,3.79
2022-09-30T15:31:05.295Z,3.97
2022-09-30T15:33:34.645Z,4.08
2022-09-30T15:36:04.734Z,4.17
2022-09-30T15:38:34.996Z,3.92
2022-09-30T15:41:11.007Z,3.91
2022-09-30T15:43:41.863Z,4.20
2022-09-30T15:46:18.655Z,4.04
2022-09-30T15:48:47.822Z,4.12
2022-09-30T15:51:39.169Z,4.30
2022-09-30T15:54:16.268Z,4.38
2022-09-30T15:56:44.417Z,4.27
2022-09-30T15:59:13.622Z,4.32
2022-09-30T16:01:44.228Z,4.84
2022-09-30T16:04:15.283Z,4.38
2022-09-30T16:06:52.629Z,4.06
2022-09-30T16:09:20.242Z,4.32
2022-09-30T16:12:06.431Z,4.30
2022-09-30T16:14:43.067Z,4.67
2022-09-30T16:17:18.468Z,4.47
2022-09-30T16:20:05.794Z,4.21
2022-09-30T16:22:35.353Z,4.76
2022-09-30T16:25:13.853Z,4.82
2022-09-30T16:27:41.420Z,5.08
2022-09-30T16:30:13.925Z,5.09
2022-09-30T16:32:44.333Z,5.20
2022-09-30T16:35:23.967Z,5.12
2022-09-30T16:38:03.558Z,4.80
2022-09-30T16:40:32.959Z,5.00
2022-09-30T16:43:03.222Z,4.59
2022-09-30T16:45:33.608Z,4.94
2022-09-30T16:48:02.001Z,5.01
2022-09-30T16:50:39.571Z,5.47
2022-09-30T16:53:09.815Z,5.27
2022-09-30T16:55:37.859Z,5.42
2022-09-30T16:58:05.494Z,5.50
2022-09-30T17:00:33.520Z,6.26
2022-09-30T17:03:01.084Z,6.61
2022-09-30T17:05:28.862Z,6.43
2022-09-30T17:07:58.236Z,6.94
2022-09-30T17:10:30.818Z,6.65
2022-09-30T17:13:03.581Z,6.47
2022-09-30T17:15:32.787Z,6.76
2022-09-30T17:18:04.891Z,6.58
2022-09-30T17:20:33.057Z,6.51
2022-09-30T17:23:04.859Z,6.28
2022-09-30T17:25:35.452Z,6.66
2022-09-30T17:28:03.656Z,6.63
2022-09-30T17:30:33.188Z,6.67
2022-09-30T17:33:00.891Z,6.49
2022-09-30T17:35:28.488Z,5.85
2022-09-30T17:37:56.507Z,5.89
2022-09-30T17:40:42.877Z,6.00
2022-09-30T17:43:11.314Z,5.86
2022-09-30T17:45:41.614Z,5.65
2022-09-30T17:48:10.887Z,6.60
2022-09-30T17:50:40.696Z,6.41
2022-09-30T17:53:08.858Z,5.48
2022-09-30T17:55:36.636Z,5.39
2022-09-30T17:58:04.496Z,5.30
2022-09-30T18:00:33.536Z,5.17
2022-09-30T18:03:01.897Z,5.55
2022-09-30T18:05:30.073Z,5.46
2022-09-30T18:07:57.865Z,5.76
2022-09-30T18:10:26.219Z,5.83
2022-09-30T18:12:55.303Z,6.19
2022-09-30T18:15:23.505Z,5.96
2022-09-30T18:17:51.080Z,6.05
2022-09-30T18:20:20.756Z,5.85
2022-09-30T18:22:51.135Z,5.90
2022-09-30T18:25:21.585Z,5.48
2022-09-30T18:27:56.195Z,5.59
2022-09-30T18:30:24.455Z,5.56
2022-09-30T18:32:53.036Z,5.44
2022-09-30T18:35:22.364Z,5.59
2022-09-30T18:37:51.137Z,5.55
2022-09-30T18:40:20.390Z,5.44
2022-09-30T18:42:49.127Z,5.79
2022-09-30T18:45:16.984Z,5.68
2022-09-30T18:47:44.965Z,5.47
2022-09-30T18:50:13.879Z,5.58
2022-09-30T18:52:41.482Z,5.20
2022-09-30T18:55:09.825Z,5.69
2022-09-30T18:57:37.974Z,5.91
2022-09-30T19:00:06.552Z,6.05
2022-09-30T19:02:35.241Z,5.96
2022-09-30T19:05:03.156Z,6.52
2022-09-30T19:07:30.775Z,6.32
2022-09-30T19:09:58.382Z,6.20
2022-09-30T19:12:31.653Z,6.30
2022-09-30T19:15:00.686Z,6.36
2022-09-30T19:17:33.256Z,6.83
2022-09-30T19:20:01.422Z,7.03
2022-09-30T19:22:29.143Z,6.84
2022-09-30T19:24:57.068Z,7.08
2022-09-30T19:27:26.266Z,7.29
2022-09-30T19:29:59.141Z,6.73
2022-09-30T19:32:30.276Z,7.48
2022-09-30T19:35:05.650Z,6.92
2022-09-30T19:37:35.061Z,6.93
2022-09-30T19:40:18.119Z,7.17
2022-09-30T19:42:49.505Z,7.07
2022-09-30T19:45:19.342Z,7.39
2022-09-30T19:47:48.983Z,8.87
2022-09-30T19:50:16.624Z,9.32
2022-09-30T19:52:54.781Z,8.35
2022-09-30T19:55:25.083Z,8.45
2022-09-30T19:57:53.037Z,7.82
2022-09-30T20:00:20.681Z,8.40
2022-09-30T20:02:48.452Z,8.32
2022-09-30T20:05:16.132Z,8.40
2022-09-30T20:07:43.843Z,7.91
2022-09-30T20:10:11.404Z,8.46
2022-09-30T20:12:39.236Z,8.14
2022-09-30T20:15:28.543Z,7.85
2022-09-30T20:17:56.264Z,7.60
2022-09-30T20:20:37.295Z,7.64
2022-09-30T20:23:05.135Z,8.24
2022-09-30T20:25:34.504Z,8.17
2022-09-30T20:28:04.386Z,7.79
2022-09-30T20:30:33.988Z,7.88
2022-09-30T20:33:02.463Z,7.71
2022-09-30T20:35:30.028Z,7.23
2022-09-30T20:37:58.511Z,7.23
2022-09-30T20:40:26.103Z,7.07
2022-09-30T20:42:56.975Z,7.17
2022-09-30T20:45:28.287Z,7.11
2022-09-30T20:47:56.401Z,7.26
2022-09-30T20:50:36.956Z,7.18
2022-09-30T20:53:09.418Z,7.38
2022-09-30T20:55:38.604Z,7.75
2022-09-30T20:58:07.563Z,7.39
2022-09-30T21:00:37.940Z,7.73
2022-09-30T21:03:07.373Z,7.76
2022-09-30T21:05:34.895Z,7.55
2022-09-30T21:08:03.442Z,7.43
2022-09-30T21:10:31.857Z,7.98
2022-09-30T21:13:01.231Z,8.11
2022-09-30T21:15:31.906Z,7.82
2022-09-30T21:17:59.681Z,7.53
2022-09-30T21:20:27.169Z,7.60
2022-09-30T21:22:55.288Z,7.67
2022-09-30T21:25:22.887Z,8.19
2022-09-30T21:27:51.151Z,8.00
2022-09-30T21:30:43.617Z,8.15
2022-09-30T21:33:36.901Z,8.12
2022-09-30T21:36:31.858Z,10.77
2022-09-30T21:39:25.564Z,11.16
2022-09-30T21:42:18.474Z,9.11
2022-09-30T21:44:46.155Z,8.33
2022-09-30T21:47:15.285Z,8.00
2022-09-30T21:49:42.874Z,7.95
2022-09-30T21:52:10.944Z,8.14
2022-09-30T21:54:41.384Z,8.99
2022-09-30T21:57:08.950Z,8.24
2022-09-30T21:59:45.408Z,8.02
2022-09-30T22:02:15.736Z,7.57
2022-09-30T22:04:43.357Z,7.44
2022-09-30T22:07:10.921Z,7.26
2022-09-30T22:09:39.677Z,6.98
2022-09-30T22:12:09.103Z,7.80
2022-09-30T22:14:37.276Z,7.24
2022-09-30T22:17:08.344Z,7.08
2022-09-30T22:19:37.464Z,7.95
2022-09-30T22:22:05.139Z,8.21
2022-09-30T22:24:32.789Z,7.90
2022-09-30T22:27:00.280Z,8.32
2022-09-30T22:29:28.834Z,8.14
2022-09-30T22:31:56.430Z,8.81
2022-09-30T22:34:42.949Z,8.64
2022-09-30T22:37:28.803Z,8.94
2022-09-30T22:40:00.707Z,9.06
2022-09-30T22:42:29.252Z,8.75
2022-09-30T22:44:57.456Z,9.10
2022-09-30T22:47:25.076Z,9.25
2022-09-30T22:49:52.736Z,8.98
2022-09-30T22:52:20.515Z,9.25
2022-09-30T22:54:48.172Z,9.18
2022-09-30T22:57:16.225Z,9.42
2022-09-30T22:59:44.680Z,9.25
2022-09-30T23:02:12.306Z,9.52
2022-09-30T23:04:39.930Z,9.82
2022-09-30T23:07:07.636Z,9.31
2022-09-30T23:09:35.355Z,9.67
2022-09-30T23:12:02.877Z,9.26
2022-09-30T23:14:30.513Z,9.24
2022-09-30T23:16:58.078Z,8.82
2022-09-30T23:19:26.517Z,8.69
2022-09-30T23:21:54.092Z,8.81
2022-09-30T23:24:22.471Z,8.47
2022-09-30T23:26:50.430Z,8.60
2022-09-30T23:29:18.019Z,8.39
2022-09-30T23:31:45.659Z,8.51
2022-09-30T23:34:13.331Z,8.35
2022-09-30T23:36:41.174Z,8.22
2022-09-30T23:39:18.669Z,7.83
2022-09-30T23:41:47.409Z,8.11
2022-09-30T23:44:19.251Z,8.60
2022-09-30T23:47:06.465Z,8.53
2022-09-30T23:49:37.628Z,8.64
2022-09-30T23:52:09.175Z,8.54
2022-09-30T23:54:43.699Z,8.25
2022-09-30T23:57:11.466Z,8.59
2022-09-30T23:59:39.105Z,8.73
